Time;durP1;ratioP1;P1;durP2;ratioP2;P2;SDS_P1;SDS_P2;PMS_P1;PMS_P2;Temp;Humidity;BMP_temperature;BMP_pressure;BME280_temperature;BME280_humidity;BME280_pressure;Samples;Min_cycle;Max_cycle;Signal;HPM_P1;HPM_P2
2022/10/06 00:01:17;;;;;;;10.27;1.30;;;16.60;99.90;;;;;;5048561;28;20199;-78
2022/10/06 00:03:44;;;;;;;2.60;1.03;;;16.70;99.90;;;;;;5032356;28;20245;-78
2022/10/06 00:06:12;;;;;;;2.23;1.10;;;16.70;99.90;;;;;;5050150;28;20415;-77
2022/10/06 00:08:39;;;;;;;2.00;1.47;;;16.60;99.90;;;;;;5050664;28;20498;-78
2022/10/06 00:11:07;;;;;;;1.40;1.07;;;16.50;99.90;;;;;;5048966;28;20421;-78
2022/10/06 00:13:34;;;;;;;1.57;1.47;;;16.50;99.90;;;;;;5050826;28;20445;-78
2022/10/06 00:16:00;;;;;;;2.90;1.10;;;16.50;99.90;;;;;;5050101;28;20435;-78
2022/10/06 00:18:27;;;;;;;4.33;1.80;;;16.40;99.90;;;;;;5050375;28;20425;-78
2022/10/06 00:20:57;;;;;;;2.60;1.10;;;16.50;99.90;;;;;;5050368;28;20285;-78
2022/10/06 00:23:24;;;;;;;2.63;1.50;;;16.60;99.90;;;;;;5050073;28;20540;-78
2022/10/06 00:25:50;;;;;;;2.30;1.40;;;16.60;99.90;;;;;;5032339;28;20960;-78
2022/10/06 00:28:16;;;;;;;4.40;1.53;;;16.70;99.90;;;;;;5048971;28;20482;-78
2022/10/06 00:30:42;;;;;;;1.80;1.27;;;16.80;99.90;;;;;;5051159;28;20436;-77
2022/10/06 00:33:12;;;;;;;1.50;1.10;;;16.70;99.90;;;;;;5050351;28;20186;-77
2022/10/06 00:35:37;;;;;;;5.73;1.67;;;16.70;99.90;;;;;;5048592;28;20203;-77
2022/10/06 00:38:03;;;;;;;4.30;1.83;;;16.80;99.90;;;;;;5050125;28;21015;-77
2022/10/06 00:40:30;;;;;;;3.60;1.60;;;16.90;99.90;;;;;;5049622;28;20825;-77
2022/10/06 00:43:00;;;;;;;1.67;1.33;;;16.80;99.90;;;;;;5047408;28;20465;-77
2022/10/06 00:45:37;;;;;;;4.20;1.40;;;16.80;99.90;;;;;;5048074;28;20462;-79
2022/10/06 00:48:26;;;;;;;6.50;1.60;;;16.70;99.90;;;;;;5049758;28;20768;-78
2022/10/06 00:50:54;;;;;;;2.37;1.17;;;16.80;99.90;;;;;;5043929;28;20434;-78
2022/10/06 00:53:21;;;;;;;3.40;1.30;;;17.00;99.90;;;;;;5049478;28;20420;-77
2022/10/06 00:55:47;;;;;;;2.80;1.13;;;16.80;99.90;;;;;;5031373;28;21020;-77
2022/10/06 00:58:13;;;;;;;1.50;1.40;;;16.70;99.90;;;;;;5048042;28;20539;-77
2022/10/06 01:00:42;;;;;;;4.53;1.40;;;16.60;99.90;;;;;;5049674;28;20213;-76
2022/10/06 01:03:20;;;;;;;4.80;1.27;;;16.80;99.90;;;;;;5048950;28;20490;-77
2022/10/06 01:05:48;;;;;;;3.97;1.70;;;16.70;99.90;;;;;;5047698;28;21024;-77
2022/10/06 01:08:15;;;;;;;2.70;1.27;;;16.40;99.90;;;;;;5047899;28;20440;-77
2022/10/06 01:10:41;;;;;;;4.27;1.60;;;16.40;99.90;;;;;;5048136;28;20460;-77
2022/10/06 01:13:09;;;;;;;6.43;1.60;;;16.30;99.90;;;;;;5049244;28;20457;-77
2022/10/06 01:15:43;;;;;;;2.20;1.27;;;16.30;99.90;;;;;;5047947;28;20444;-78
2022/10/06 01:18:15;;;;;;;1.93;1.33;;;16.40;99.90;;;;;;5047643;28;20429;-78
2022/10/06 01:20:59;;;;;;;4.80;1.40;;;16.40;99.90;;;;;;5049079;28;20788;-77
2022/10/06 01:23:26;;;;;;;2.13;1.37;;;16.30;99.90;;;;;;5049014;28;20539;-78
2022/10/06 01:25:52;;;;;;;5.33;1.90;;;16.20;99.90;;;;;;5049071;28;20852;-77
2022/10/06 01:28:18;;;;;;;10.00;1.40;;;16.20;99.90;;;;;;5048938;28;20416;-77
2022/10/06 01:30:51;;;;;;;2.07;1.43;;;16.20;99.90;;;;;;5047577;28;21001;-78
2022/10/06 01:33:18;;;;;;;5.93;1.47;;;16.30;99.90;;;;;;5047481;28;20877;-78
2022/10/06 01:35:48;;;;;;;5.13;1.60;;;16.30;99.90;;;;;;5048793;28;20802;-77
2022/10/06 01:38:13;;;;;;;7.13;1.50;;;16.10;99.90;;;;;;5048813;28;20499;-77
2022/10/06 01:40:39;;;;;;;2.23;1.67;;;16.10;99.90;;;;;;5047428;28;21340;-77
2022/10/06 01:43:04;;;;;;;8.20;2.00;;;16.20;99.90;;;;;;5047309;28;20205;-78
2022/10/06 01:45:30;;;;;;;3.07;1.63;;;16.30;99.90;;;;;;5047104;28;20632;-77
2022/10/06 01:47:56;;;;;;;5.10;1.47;;;16.30;99.90;;;;;;5048699;28;20188;-77
2022/10/06 01:50:22;;;;;;;2.90;1.30;;;16.40;99.90;;;;;;5047325;28;20248;-77
2022/10/06 01:52:47;;;;;;;6.27;1.50;;;16.50;99.90;;;;;;5047122;28;20432;-77
2022/10/06 01:55:14;;;;;;;3.20;1.67;;;16.70;99.90;;;;;;5050117;28;20197;-77
2022/10/06 01:57:41;;;;;;;4.60;1.70;;;16.70;99.90;;;;;;5052376;28;20203;-78
2022/10/06 02:00:09;;;;;;;2.00;1.33;;;16.80;99.90;;;;;;5052354;28;20409;-77
2022/10/06 02:02:35;;;;;;;5.17;1.70;;;16.90;99.90;;;;;;5051804;28;20432;-78
2022/10/06 02:05:00;;;;;;;2.90;1.20;;;17.00;99.90;;;;;;5054458;28;20781;-77
2022/10/06 02:07:26;;;;;;;1.63;1.13;;;17.10;99.90;;;;;;5052475;28;20190;-78
2022/10/06 02:09:51;;;;;;;2.97;1.60;;;17.00;99.90;;;;;;5052605;28;20190;-78
2022/10/06 02:12:17;;;;;;;5.67;1.53;;;17.00;99.90;;;;;;5034250;28;20187;-77
2022/10/06 02:14:42;;;;;;;6.10;2.07;;;17.00;99.90;;;;;;5050630;28;20216;-78
2022/10/06 02:17:09;;;;;;;3.77;1.70;;;16.90;99.90;;;;;;5050733;28;20272;-78
2022/10/06 02:19:35;;;;;;;2.83;1.47;;;17.00;99.90;;;;;;5052235;28;20267;-77
2022/10/06 02:22:01;;;;;;;10.27;1.90;;;17.00;99.90;;;;;;5050983;28;20425;-77
2022/10/06 02:24:27;;;;;;;12.50;1.70;;;17.10;99.90;;;;;;5052138;28;20466;-78
2022/10/06 02:26:53;;;;;;;2.53;1.50;;;17.10;99.90;;;;;;5033757;28;20958;-78
2022/10/06 02:29:19;;;;;;;3.13;1.60;;;17.20;99.90;;;;;;5050399;28;20973;-77
2022/10/06 02:31:45;;;;;;;2.90;1.63;;;17.10;99.90;;;;;;5051837;28;20433;-77
2022/10/06 02:34:10;;;;;;;2.70;1.10;;;17.10;99.90;;;;;;5050595;28;20434;-76
2022/10/06 02:36:36;;;;;;;4.90;1.73;;;17.00;99.90;;;;;;5051640;28;20455;-78
2022/10/06 02:39:02;;;;;;;4.70;1.50;;;16.90;99.90;;;;;;5050336;28;20178;-78
2022/10/06 02:41:28;;;;;;;4.83;1.90;;;16.90;99.90;;;;;;5050356;28;20182;-78
2022/10/06 02:43:54;;;;;;;3.27;1.60;;;16.90;99.90;;;;;;5051781;28;20538;-78
2022/10/06 02:46:21;;;;;;;4.10;1.77;;;16.80;99.90;;;;;;5049990;28;20427;-78
2022/10/06 02:48:46;;;;;;;4.60;1.87;;;16.80;99.90;;;;;;5051706;28;20214;-78
2022/10/06 02:51:15;;;;;;;4.83;1.60;;;16.70;99.90;;;;;;5033318;28;20446;-78
2022/10/06 02:53:43;;;;;;;2.70;1.60;;;16.70;99.90;;;;;;5051403;28;20214;-78
2022/10/06 02:56:15;;;;;;;3.37;1.70;;;16.70;99.90;;;;;;5050410;28;20524;-78
2022/10/06 02:58:41;;;;;;;3.33;1.20;;;16.60;99.90;;;;;;5050319;28;20437;-78
2022/10/06 03:01:16;;;;;;;1.70;1.50;;;16.70;99.90;;;;;;5051855;28;20490;-76
2022/10/06 03:03:43;;;;;;;7.27;2.10;;;16.70;99.90;;;;;;5052126;28;20479;-77
2022/10/06 03:06:24;;;;;;;7.37;1.73;;;16.60;99.90;;;;;;5049850;28;20508;-78
2022/10/06 03:08:53;;;;;;;5.93;1.90;;;16.60;99.90;;;;;;5050403;28;20517;-78
2022/10/06 03:11:20;;;;;;;5.33;1.67;;;16.70;99.90;;;;;;5050260;28;20503;-78
2022/10/06 03:13:48;;;;;;;4.37;1.80;;;16.80;99.90;;;;;;5051577;28;20440;-78
2022/10/06 03:16:15;;;;;;;3.97;1.60;;;16.80;99.90;;;;;;5050208;28;20525;-77
2022/10/06 03:18:43;;;;;;;3.57;1.60;;;16.70;99.90;;;;;;5051617;28;20427;-77
2022/10/06 03:21:10;;;;;;;11.40;1.70;;;16.70;99.90;;;;;;5050125;28;20478;-77
2022/10/06 03:23:35;;;;;;;8.00;1.70;;;16.80;99.90;;;;;;5049855;28;20527;-78
2022/10/06 03:26:01;;;;;;;7.97;2.10;;;16.80;99.90;;;;;;5049688;28;20435;-78
2022/10/06 03:28:27;;;;;;;7.57;1.87;;;16.80;99.90;;;;;;5051283;28;20213;-78
2022/10/06 03:30:53;;;;;;;5.10;1.80;;;16.80;99.90;;;;;;5051097;28;20183;-77
2022/10/06 03:33:18;;;;;;;5.47;1.70;;;16.70;99.90;;;;;;5049807;28;20186;-77
2022/10/06 03:35:44;;;;;;;4.80;2.10;;;16.70;99.90;;;;;;5051445;28;20556;-77
2022/10/06 03:38:10;;;;;;;1.67;1.33;;;16.80;99.90;;;;;;5049666;28;20187;-77
2022/10/06 03:40:36;;;;;;;4.93;1.73;;;16.80;99.90;;;;;;5050786;28;20225;-77
2022/10/06 03:43:01;;;;;;;3.20;1.87;;;16.70;99.90;;;;;;5051152;28;20248;-77
2022/10/06 03:45:27;;;;;;;2.67;2.03;;;16.70;99.90;;;;;;5051066;28;20202;-77
2022/10/06 03:47:54;;;;;;;2.33;1.63;;;16.70;99.90;;;;;;5049816;28;20236;-78
2022/10/06 03:50:19;;;;;;;5.47;1.80;;;16.70;99.90;;;;;;5051411;28;20189;-77
2022/10/06 03:52:50;;;;;;;2.90;1.70;;;16.70;99.90;;;;;;5033546;28;20432;-76
2022/10/06 03:55:15;;;;;;;2.40;2.10;;;16.70;99.90;;;;;;5051072;28;20198;-77
2022/10/06 03:57:41;;;;;;;5.70;1.57;;;16.50;99.90;;;;;;5051303;28;20442;-78
2022/10/06 04:00:08;;;;;;;7.00;1.93;;;16.70;99.90;;;;;;5051913;28;20190;-77
2022/10/06 04:02:33;;;;;;;3.93;1.40;;;16.70;99.90;;;;;;5051176;28;20182;-76
2022/10/06 04:04:59;;;;;;;3.20;1.70;;;16.70;99.90;;;;;;5050887;28;20475;-77
2022/10/06 04:07:25;;;;;;;2.30;1.50;;;16.60;99.90;;;;;;5033130;28;20191;-76
2022/10/06 04:09:50;;;;;;;2.03;1.83;;;16.60;99.90;;;;;;5049925;28;20324;-76
2022/10/06 04:12:16;;;;;;;4.50;1.80;;;16.50;99.90;;;;;;5050529;28;20461;-78
2022/10/06 04:14:42;;;;;;;7.00;2.00;;;16.50;99.90;;;;;;5049130;28;20682;-76
2022/10/06 04:17:07;;;;;;;4.10;2.13;;;16.50;99.90;;;;;;5049746;28;20192;-77
2022/10/06 04:19:33;;;;;;;4.77;2.30;;;16.50;99.90;;;;;;5050410;28;20188;-77
2022/10/06 04:21:58;;;;;;;5.23;1.70;;;16.40;99.90;;;;;;5050322;28;20681;-77
2022/10/06 04:24:24;;;;;;;4.27;1.70;;;16.40;99.90;;;;;;5048762;28;20336;-78
2022/10/06 04:26:51;;;;;;;5.37;2.00;;;16.40;99.90;;;;;;5050277;28;20182;-78
2022/10/06 04:29:16;;;;;;;1.90;1.63;;;16.40;99.90;;;;;;5032781;28;20563;-77
2022/10/06 04:31:42;;;;;;;6.33;1.67;;;16.40;99.90;;;;;;5050695;28;20425;-78
2022/10/06 04:34:10;;;;;;;4.40;1.53;;;16.50;99.90;;;;;;5059183;28;20217;-75
2022/10/06 04:36:39;;;;;;;4.17;1.87;;;16.50;99.90;;;;;;5075667;28;20183;-75
2022/10/06 04:39:06;;;;;;;6.60;2.20;;;16.50;99.90;;;;;;5075166;28;20437;-75
2022/10/06 04:41:35;;;;;;;2.67;1.87;;;16.40;99.90;;;;;;5075650;28;20465;-75
2022/10/06 04:44:01;;;;;;;4.00;2.13;;;16.50;99.90;;;;;;5067654;28;20546;-77
2022/10/06 04:46:28;;;;;;;3.27;1.90;;;16.40;99.90;;;;;;5051904;28;20447;-77
2022/10/06 04:48:54;;;;;;;3.40;1.80;;;16.30;99.90;;;;;;5052261;28;21008;-78
2022/10/06 04:51:22;;;;;;;5.20;2.10;;;16.30;99.90;;;;;;5050594;28;20428;-78
2022/10/06 04:53:48;;;;;;;2.53;1.97;;;16.30;99.90;;;;;;5051401;28;20950;-79
2022/10/06 04:56:20;;;;;;;4.00;2.40;;;16.20;99.90;;;;;;5051512;28;20449;-78
2022/10/06 04:58:48;;;;;;;4.60;2.00;;;16.20;99.90;;;;;;5051269;28;20441;-78
2022/10/06 05:01:18;;;;;;;4.40;2.17;;;16.20;99.90;;;;;;5050713;28;20420;-77
2022/10/06 05:03:45;;;;;;;3.50;2.10;;;16.20;99.90;;;;;;5048622;28;20477;-78
2022/10/06 05:06:13;;;;;;;4.20;2.37;;;16.10;99.90;;;;;;5051284;28;20475;-79
2022/10/06 05:08:39;;;;;;;6.43;3.03;;;16.00;99.90;;;;;;5049389;28;20428;-78
2022/10/06 05:11:08;;;;;;;3.97;2.23;;;15.40;99.90;;;;;;5049824;28;20462;-79
2022/10/06 05:13:35;;;;;;;4.73;3.03;;;14.70;99.90;;;;;;5050620;28;20569;-78
2022/10/06 05:16:04;;;;;;;4.87;2.47;;;14.30;99.90;;;;;;5050969;28;20427;-79
2022/10/06 05:18:30;;;;;;;7.53;2.67;;;14.10;99.90;;;;;;5049854;28;20593;-78
2022/10/06 05:21:05;;;;;;;5.60;2.63;;;14.00;99.90;;;;;;5051534;28;20429;-77
2022/10/06 05:23:33;;;;;;;4.70;3.23;;;13.70;99.90;;;;;;5050594;28;20474;-79
2022/10/06 05:26:00;;;;;;;8.70;2.77;;;13.50;99.90;;;;;;5051503;28;20424;-80
2022/10/06 05:28:28;;;;;;;8.40;3.20;;;13.40;99.90;;;;;;5051951;28;20449;-76
2022/10/06 05:31:15;;;;;;;6.33;3.37;;;13.40;99.90;;;;;;5053516;28;20941;-76
2022/10/06 05:33:41;;;;;;;7.47;3.20;;;13.30;99.90;;;;;;5054443;28;20438;-77
2022/10/06 05:36:14;;;;;;;5.77;2.87;;;13.20;99.90;;;;;;5055287;28;20429;-76
2022/10/06 05:38:40;;;;;;;9.30;3.03;;;13.00;99.90;;;;;;5054389;28;20453;-76
2022/10/06 05:41:12;;;;;;;8.13;2.80;;;13.00;99.90;;;;;;5052698;28;20427;-78
2022/10/06 05:43:39;;;;;;;4.67;3.03;;;13.00;99.90;;;;;;5052734;28;20481;-79
2022/10/06 05:46:07;;;;;;;11.50;4.00;;;12.90;99.90;;;;;;5053032;28;20433;-78
2022/10/06 05:48:33;;;;;;;9.53;3.63;;;12.90;99.90;;;;;;5054140;28;20414;-78
2022/10/06 05:51:06;;;;;;;3.20;2.60;;;12.90;99.90;;;;;;5054191;28;20426;-78
2022/10/06 05:53:34;;;;;;;4.47;2.47;;;12.90;99.90;;;;;;5052112;28;20310;-77
2022/10/06 05:56:08;;;;;;;7.90;2.60;;;12.80;99.90;;;;;;5051883;28;20426;-78
2022/10/06 05:58:36;;;;;;;9.90;2.60;;;12.80;99.90;;;;;;5053083;28;20501;-78
2022/10/06 06:01:31;;;;;;;3.43;2.73;;;12.70;99.90;;;;;;5051716;28;20469;-78
2022/10/06 06:04:02;;;;;;;7.23;3.33;;;12.80;99.90;;;;;;5052141;28;20482;-78
2022/10/06 06:06:32;;;;;;;5.97;3.10;;;12.80;99.90;;;;;;5052973;28;20496;-77
2022/10/06 06:09:03;;;;;;;11.30;2.97;;;12.90;99.90;;;;;;5053003;28;20529;-78
2022/10/06 06:11:30;;;;;;;10.83;3.53;;;12.60;99.90;;;;;;5051181;28;20429;-78
2022/10/06 06:14:08;;;;;;;11.83;2.90;;;12.50;99.90;;;;;;5051387;28;20544;-77
2022/10/06 06:16:35;;;;;;;6.63;2.50;;;12.40;99.90;;;;;;5034851;28;20444;-78
2022/10/06 06:19:01;;;;;;;11.33;3.70;;;12.70;99.90;;;;;;5051166;28;20436;-78
2022/10/06 06:21:28;;;;;;;10.50;2.63;;;12.70;99.90;;;;;;5052767;28;20420;-78
2022/10/06 06:23:53;;;;;;;4.40;3.43;;;12.90;99.90;;;;;;5052209;28;20473;-77
2022/10/06 06:26:27;;;;;;;5.83;2.90;;;12.70;99.90;;;;;;5052678;28;20414;-78
2022/10/06 06:28:55;;;;;;;11.67;3.30;;;12.70;99.90;;;;;;5052206;28;20218;-77
2022/10/06 06:31:26;;;;;;;3.53;2.50;;;12.80;99.90;;;;;;5050803;28;20423;-77
2022/10/06 06:33:56;;;;;;;5.53;2.57;;;12.90;99.90;;;;;;5052143;28;20528;-78
2022/10/06 06:36:27;;;;;;;4.13;2.37;;;13.10;99.90;;;;;;5051996;28;20429;-77
2022/10/06 06:38:55;;;;;;;4.47;3.00;;;13.20;99.90;;;;;;5050389;28;20426;-77
2022/10/06 06:41:26;;;;;;;3.27;2.90;;;13.20;99.90;;;;;;5051263;28;20439;-78
2022/10/06 06:43:52;;;;;;;3.40;2.47;;;13.40;99.90;;;;;;5051651;28;20492;-77
2022/10/06 06:46:22;;;;;;;6.70;2.70;;;13.50;99.90;;;;;;5051609;28;20426;-77
2022/10/06 06:48:49;;;;;;;9.77;2.60;;;13.60;99.90;;;;;;5051814;28;20810;-79
2022/10/06 06:51:15;;;;;;;3.40;3.00;;;13.80;99.90;;;;;;5050327;28;20425;-78
2022/10/06 06:53:41;;;;;;;6.70;3.10;;;14.00;99.90;;;;;;5051857;28;20443;-77
2022/10/06 06:56:08;;;;;;;6.50;2.97;;;14.00;99.90;;;;;;5050154;28;20260;-77
2022/10/06 06:58:36;;;;;;;10.93;3.40;;;14.20;99.90;;;;;;5051213;28;20447;-78
2022/10/06 07:01:07;;;;;;;5.60;3.20;;;14.20;99.90;;;;;;5051204;28;20433;-77
2022/10/06 07:03:33;;;;;;;4.33;3.13;;;14.30;99.90;;;;;;5050771;28;20501;-78
2022/10/06 07:06:08;;;;;;;5.70;2.80;;;14.40;99.90;;;;;;5051110;28;20466;-77
2022/10/06 07:08:41;;;;;;;5.40;2.67;;;14.50;99.90;;;;;;5050248;28;20445;-79
2022/10/06 07:11:34;;;;;;;8.13;4.10;;;14.60;99.90;;;;;;5051870;28;20420;-77
2022/10/06 07:14:03;;;;;;;4.40;3.57;;;14.70;99.90;;;;;;5049641;28;20466;-78
2022/10/06 07:25:05;;;;;;;5.47;3.50;;;14.90;99.90;;;;;;5051359;28;20476;-78
2022/10/06 07:27:35;;;;;;;8.73;3.10;;;14.90;99.90;;;;;;5034962;28;20434;-77
2022/10/06 07:30:02;;;;;;;4.90;3.20;;;15.00;99.90;;;;;;5049594;28;20425;-78
2022/10/06 07:32:30;;;;;;;6.90;3.30;;;15.00;99.90;;;;;;5049508;28;20438;-77
2022/10/06 07:34:59;;;;;;;5.87;3.37;;;15.10;99.90;;;;;;5049657;28;20444;-77
2022/10/06 07:37:27;;;;;;;7.10;3.40;;;15.10;99.90;;;;;;5049307;28;20441;-77
2022/10/06 07:39:53;;;;;;;12.73;3.30;;;15.20;99.90;;;;;;5050982;28;20427;-78
2022/10/06 07:42:18;;;;;;;3.83;2.60;;;15.20;99.90;;;;;;5050911;28;20442;-77
2022/10/06 07:45:36;;;;;;;3.70;2.70;;;15.30;99.90;;;;;;5049389;28;20224;-77
2022/10/06 07:47:32;;;;;;;7.10;3.00;;;15.40;99.90;;;;;;5050504;28;20598;-77
2022/10/06 07:49:57;;;;;;;8.10;2.80;;;15.40;99.90;;;;;;5049347;28;20426;-77
2022/10/06 07:52:24;;;;;;;5.23;2.90;;;15.40;99.90;;;;;;5049462;28;21054;-80
2022/10/06 07:54:50;;;;;;;4.07;2.90;;;15.50;99.90;;;;;;5050569;28;20230;-77
2022/10/06 07:57:15;;;;;;;4.97;2.77;;;15.40;99.90;;;;;;5049181;28;20817;-77
2022/10/06 07:59:41;;;;;;;7.77;3.00;;;15.50;99.90;;;;;;5016258;28;20197;-78
2022/10/06 08:02:07;;;;;;;5.10;2.97;;;15.50;99.90;;;;;;5049014;28;20192;-78
2022/10/06 08:04:33;;;;;;;3.07;2.83;;;15.50;99.90;;;;;;5050146;28;20909;-77
2022/10/06 08:06:59;;;;;;;6.47;3.40;;;15.50;99.90;;;;;;5050398;28;20272;-78
2022/10/06 08:09:24;;;;;;;3.90;3.13;;;15.50;99.90;;;;;;5050332;28;20501;-77
2022/10/06 08:11:51;;;;;;;5.60;2.50;;;15.60;99.90;;;;;;5049176;28;20698;-77
2022/10/06 08:14:17;;;;;;;9.93;4.50;;;15.60;99.90;;;;;;5048701;28;20212;-77
2022/10/06 08:16:43;;;;;;;7.33;3.30;;;15.40;99.90;;;;;;5050147;28;20795;-77
2022/10/06 08:19:10;;;;;;;4.60;2.57;;;15.60;99.90;;;;;;5032349;28;20263;-76
2022/10/06 08:21:37;;;;;;;8.80;3.10;;;15.60;99.90;;;;;;5032190;28;20922;-77
2022/10/06 08:24:03;;;;;;;4.83;2.90;;;15.60;99.90;;;;;;5049927;28;20486;-77
2022/10/06 08:26:30;;;;;;;7.30;3.53;;;15.70;99.90;;;;;;5015054;28;20431;-78
2022/10/06 08:29:01;;;;;;;4.97;3.10;;;15.70;99.90;;;;;;5048148;28;20651;-76
2022/10/06 08:31:28;;;;;;;5.43;2.87;;;15.70;99.90;;;;;;5049974;28;20499;-77
2022/10/06 08:33:55;;;;;;;6.27;2.40;;;15.70;99.90;;;;;;5049496;28;20443;-76
2022/10/06 08:36:23;;;;;;;12.30;3.37;;;15.80;99.90;;;;;;5049513;28;20506;-77
2022/10/06 08:38:49;;;;;;;4.53;2.27;;;15.80;99.90;;;;;;5049618;28;20447;-76
2022/10/06 08:41:35;;;;;;;6.17;3.20;;;15.80;99.90;;;;;;5048205;28;20815;-77
2022/10/06 08:44:19;;;;;;;7.00;2.70;;;15.80;99.90;;;;;;5048717;28;20578;-78
2022/10/06 08:46:49;;;;;;;9.87;3.17;;;15.80;99.90;;;;;;5049347;28;20418;-78
2022/10/06 08:49:20;;;;;;;5.27;2.77;;;15.80;99.90;;;;;;5049394;28;20411;-79
2022/10/06 08:52:24;;;;;;;3.93;2.70;;;15.80;99.90;;;;;;5049293;28;20469;-78
2022/10/06 08:55:11;;;;;;;3.50;2.63;;;15.90;99.90;;;;;;5035723;28;20445;-78
2022/10/06 08:57:57;;;;;;;3.90;2.53;;;15.90;99.90;;;;;;5047873;28;20448;-78
2022/10/06 09:00:23;;;;;;;10.70;2.47;;;16.00;99.90;;;;;;5049259;28;20420;-77
2022/10/06 09:02:49;;;;;;;10.00;3.00;;;16.00;99.90;;;;;;5048783;28;20436;-77
2022/10/06 09:05:24;;;;;;;4.27;2.27;;;16.00;99.90;;;;;;5049272;28;20206;-78
2022/10/06 09:08:28;;;;;;;5.30;2.50;;;16.10;99.90;;;;;;5048491;28;20419;-78
2022/10/06 09:11:08;;;;;;;6.37;2.37;;;16.20;99.90;;;;;;5049798;28;20412;-78
2022/10/06 09:13:40;;;;;;;5.77;1.97;;;16.20;99.90;;;;;;5050053;28;20800;-78
2022/10/06 09:16:10;;;;;;;8.70;2.40;;;16.20;99.90;;;;;;5048365;28;20424;-78
2022/10/06 09:18:43;;;;;;;7.70;2.60;;;16.20;99.90;;;;;;5049929;28;20407;-78
2022/10/06 09:21:14;;;;;;;3.10;2.00;;;16.20;99.90;;;;;;5048360;28;20805;-77
2022/10/06 09:23:46;;;;;;;4.50;2.23;;;16.20;99.90;;;;;;5049640;28;20522;-77
2022/10/06 09:26:15;;;;;;;8.17;2.73;;;16.30;99.90;;;;;;5048358;28;20429;-77
2022/10/06 09:28:44;;;;;;;4.57;2.50;;;16.40;99.90;;;;;;5048173;28;20425;-76
2022/10/06 09:31:23;;;;;;;4.03;2.20;;;16.50;99.90;;;;;;5049656;28;20462;-78
2022/10/06 09:33:52;;;;;;;3.10;2.27;;;16.60;99.90;;;;;;5047895;28;20503;-78
2022/10/06 09:36:18;;;;;;;10.93;1.90;;;16.70;99.90;;;;;;5050720;28;20418;-78
2022/10/06 09:38:53;;;;;;;4.87;2.67;;;16.80;99.90;;;;;;5049228;28;20439;-77
2022/10/06 09:41:23;;;;;;;7.40;2.33;;;16.90;99.90;;;;;;5050415;28;20458;-79
2022/10/06 09:43:55;;;;;;;8.47;2.50;;;17.10;99.90;;;;;;5050443;28;20518;-78
2022/10/06 09:46:42;;;;;;;8.07;2.63;;;17.30;99.90;;;;;;5049037;28;20449;-79
2022/10/06 09:49:34;;;;;;;7.03;2.30;;;17.40;99.90;;;;;;5050026;28;20428;-78
2022/10/06 09:52:08;;;;;;;6.00;2.37;;;17.50;99.90;;;;;;5045481;28;20429;-78
2022/10/06 09:54:33;;;;;;;7.97;2.10;;;17.60;99.90;;;;;;5050321;28;20448;-78
2022/10/06 09:57:12;;;;;;;7.23;1.97;;;17.80;99.90;;;;;;5054738;28;20430;-77
2022/10/06 09:59:42;;;;;;;16.50;5.37;;;17.90;99.90;;;;;;5051879;28;20484;-78
2022/10/06 10:02:35;;;;;;;4.90;3.07;;;18.10;99.90;;;;;;5052943;28;20428;-77
2022/10/06 10:05:05;;;;;;;8.03;1.80;;;18.10;99.90;;;;;;5052291;28;20480;-78
2022/10/06 10:07:33;;;;;;;5.60;1.60;;;18.10;99.90;;;;;;5051298;28;20463;-77
2022/10/06 10:10:19;;;;;;;5.10;2.03;;;18.10;99.90;;;;;;5052933;28;20782;-78
2022/10/06 10:12:53;;;;;;;4.83;1.77;;;18.10;99.90;;;;;;5050246;28;20467;-77
2022/10/06 10:15:18;;;;;;;6.53;2.33;;;18.20;99.90;;;;;;5052927;28;20436;-78
2022/10/06 10:17:47;;;;;;;5.43;2.20;;;18.20;99.90;;;;;;5054117;28;20482;-76
2022/10/06 10:20:49;;;;;;;8.83;2.10;;;18.40;99.90;;;;;;5054344;28;20663;-80
2022/10/06 10:23:30;;;;;;;6.10;1.80;;;18.60;99.90;;;;;;5053675;28;21024;-78
2022/10/06 10:26:16;;;;;;;5.23;2.43;;;18.50;99.90;;;;;;5053433;28;20453;-78
2022/10/06 10:29:08;;;;;;;6.23;1.90;;;18.90;99.90;;;;;;5052078;28;20577;-78
2022/10/06 10:31:54;;;;;;;4.60;1.70;;;19.50;99.90;;;;;;5052201;28;20418;-78
2022/10/06 10:34:40;;;;;;;7.50;2.20;;;20.20;99.90;;;;;;5052019;28;20865;-77
2022/10/06 10:37:30;;;;;;;8.97;2.63;;;20.90;99.90;;;;;;5053091;28;20847;-76
2022/10/06 10:39:55;;;;;;;5.00;1.60;;;21.40;99.90;;;;;;5052898;28;20429;-80
2022/10/06 10:42:28;;;;;;;5.00;1.53;;;21.40;99.90;;;;;;5051584;28;20452;-77
2022/10/06 10:45:01;;;;;;;11.23;3.00;;;20.80;99.90;;;;;;5052919;28;20300;-79
2022/10/06 10:47:37;;;;;;;3.30;1.90;;;20.70;99.90;;;;;;5052968;28;20982;-78
2022/10/06 10:50:24;;;;;;;3.20;1.70;;;20.50;99.90;;;;;;5051395;28;20438;-77
2022/10/06 10:52:55;;;;;;;6.70;1.90;;;20.20;99.90;;;;;;5052564;28;20915;-78
2022/10/06 10:55:28;;;;;;;3.80;1.70;;;19.80;99.90;;;;;;5052078;28;20499;-78
2022/10/06 10:58:41;;;;;;;11.07;1.90;;;19.50;99.90;;;;;;5051507;28;20478;-79
2022/10/06 11:01:16;;;;;;;3.80;2.20;;;19.20;99.90;;;;;;5045436;28;20523;-78
2022/10/06 11:03:42;;;;;;;7.33;2.20;;;19.00;99.90;;;;;;5052315;28;21150;-78
2022/10/06 11:06:27;;;;;;;4.67;2.37;;;18.70;99.90;;;;;;5051650;28;20494;-77
2022/10/06 11:09:04;;;;;;;4.77;2.60;;;18.50;99.90;;;;;;5051639;28;20471;-77
2022/10/06 11:11:44;;;;;;;3.07;2.00;;;18.40;99.90;;;;;;5050192;28;20504;-78
2022/10/06 11:14:47;;;;;;;5.93;3.67;;;18.30;99.90;;;;;;5051769;28;20447;-78
2022/10/06 11:17:32;;;;;;;5.40;2.50;;;18.20;99.90;;;;;;5051520;28;20421;-78
2022/10/06 11:20:25;;;;;;;12.93;3.13;;;18.20;99.90;;;;;;5051704;28;20425;-78
2022/10/06 11:22:59;;;;;;;5.10;2.30;;;18.20;99.90;;;;;;5050354;28;20882;-77
2022/10/06 11:25:35;;;;;;;5.53;2.00;;;18.30;99.90;;;;;;5051125;28;20465;-77
2022/10/06 11:28:30;;;;;;;4.60;1.57;;;18.40;99.90;;;;;;5051437;28;20398;-78
2022/10/06 11:31:37;;;;;;;5.57;1.80;;;18.40;99.90;;;;;;5051082;28;20532;-77
2022/10/06 11:34:05;;;;;;;6.67;1.50;;;18.50;99.90;;;;;;5050871;28;20475;-77
2022/10/06 11:37:10;;;;;;;7.30;1.57;;;18.60;99.90;;;;;;5049193;28;20465;-77
2022/10/06 11:39:59;;;;;;;4.10;1.73;;;18.90;99.90;;;;;;5041013;28;20434;-77
2022/10/06 11:42:29;;;;;;;2.70;1.30;;;19.10;99.90;;;;;;5048763;28;20418;-78
2022/10/06 11:44:58;;;;;;;12.03;1.70;;;19.40;99.90;;;;;;5049774;28;20469;-77
2022/10/06 11:47:30;;;;;;;10.83;2.10;;;19.20;99.90;;;;;;5050046;28;20427;-76
2022/10/06 11:49:56;;;;;;;5.03;2.00;;;18.90;99.90;;;;;;5050320;28;20929;-77
2022/10/06 11:52:21;;;;;;;12.43;2.43;;;19.00;99.90;;;;;;5050023;28;20442;-77
2022/10/06 11:54:52;;;;;;;2.33;1.57;;;19.10;99.90;;;;;;5050181;28;20680;-77
2022/10/06 11:57:23;;;;;;;5.13;1.77;;;19.10;99.90;;;;;;5049783;28;20202;-77
2022/10/06 11:59:54;;;;;;;3.73;1.30;;;19.30;99.90;;;;;;5050144;28;20422;-77
2022/10/06 12:02:29;;;;;;;4.53;1.50;;;19.40;99.90;;;;;;5048578;28;20424;-77
2022/10/06 12:05:30;;;;;;;99.47;28.27;;;19.60;99.90;;;;;;5049999;28;20568;-77
2022/10/06 12:07:59;;;;;;;13.07;3.57;;;20.00;99.90;;;;;;5047735;28;20493;-77
2022/10/06 12:10:27;;;;;;;4.43;1.70;;;19.90;99.90;;;;;;5050210;28;20415;-77
2022/10/06 12:13:18;;;;;;;4.33;1.70;;;19.70;99.90;;;;;;5050225;28;20929;-77
2022/10/06 12:15:49;;;;;;;5.47;1.43;;;19.50;99.90;;;;;;5050049;28;20424;-77
2022/10/06 12:18:30;;;;;;;3.97;1.47;;;19.20;99.90;;;;;;5050078;28;20413;-78
2022/10/06 12:21:05;;;;;;;6.83;1.87;;;19.10;99.90;;;;;;5050175;28;20418;-77
2022/10/06 12:23:46;;;;;;;18.50;6.27;;;19.00;99.90;;;;;;5050110;28;20555;-76
2022/10/06 12:26:33;;;;;;;50.77;14.57;;;19.00;99.90;;;;;;5050127;28;20923;-78
2022/10/06 12:29:20;;;;;;;21.03;4.97;;;19.00;99.90;;;;;;5049999;28;20408;-78
2022/10/06 12:31:52;;;;;;;5.77;1.90;;;19.00;99.90;;;;;;5049927;28;20987;-77
2022/10/06 12:34:40;;;;;;;7.33;1.43;;;18.80;99.90;;;;;;5049556;28;20488;-78
2022/10/06 12:37:19;;;;;;;14.70;4.03;;;18.80;99.90;;;;;;5047840;28;20968;-78
2022/10/06 12:39:44;;;;;;;8.03;2.57;;;18.70;99.90;;;;;;5049556;28;20414;-77
2022/10/06 12:42:19;;;;;;;4.60;1.70;;;18.70;99.90;;;;;;5049366;28;20418;-79
2022/10/06 12:44:50;;;;;;;6.83;1.80;;;18.90;99.90;;;;;;5048858;28;20275;-77
2022/10/06 12:47:20;;;;;;;16.23;7.07;;;19.30;99.90;;;;;;5048867;28;20410;-77
2022/10/06 12:49:53;;;;;;;23.93;9.23;;;19.80;99.90;;;;;;5049000;28;20499;-78
2022/10/06 12:52:43;;;;;;;5.70;2.90;;;20.30;99.90;;;;;;5049091;28;20934;-77
2022/10/06 12:55:31;;;;;;;9.50;2.17;;;20.60;99.90;;;;;;5048847;28;20816;-77
2022/10/06 12:57:57;;;;;;;7.23;1.60;;;20.70;99.90;;;;;;5047138;28;20442;-78
2022/10/06 13:00:32;;;;;;;8.63;2.10;;;20.70;99.90;;;;;;5048736;28;20426;-78
2022/10/06 13:02:59;;;;;;;7.77;2.03;;;20.70;99.90;;;;;;5048704;28;20181;-77
2022/10/06 13:05:25;;;;;;;8.40;1.90;;;20.60;99.90;;;;;;5048624;28;20461;-77
2022/10/06 13:08:18;;;;;;;3.30;1.60;;;20.50;99.90;;;;;;5047344;28;20460;-78
2022/10/06 13:10:44;;;;;;;7.20;1.73;;;20.50;99.90;;;;;;5048819;28;20415;-77
2022/10/06 13:13:24;;;;;;;6.37;1.93;;;20.50;99.90;;;;;;5030593;28;20529;-77
2022/10/06 13:15:54;;;;;;;5.23;1.73;;;20.40;99.90;;;;;;5048815;28;20195;-78